sensor_id;sensor_type;location;lat;lon;timestamp;pressure;altitude;pressure_sealevel;temperature;humidity
5062;BME280;2351;50.812;12.872;2024-03-23T00:54:32;97080.56;;;7.34;95.84
5062;BME280;2351;50.812;12.872;2024-03-23T00:57:03;97076.81;;;7.36;95.77
5062;BME280;2351;50.812;12.872;2024-03-23T00:59:35;97071.44;;;7.38;95.75
5062;BME280;2351;50.812;12.872;2024-03-23T01:02:05;97069.47;;;7.40;96.24
5062;BME280;2351;50.812;12.872;2024-03-23T01:04:37;97076.13;;;7.44;95.93
5062;BME280;2351;50.812;12.872;2024-03-23T01:07:08;97070.59;;;7.47;96.12
5062;BME280;2351;50.812;12.872;2024-03-23T01:09:41;97074.66;;;7.51;96.21
5062;BME280;2351;50.812;12.872;2024-03-23T01:12:11;97063.00;;;7.54;96.35
5062;BME280;2351;50.812;12.872;2024-03-23T01:14:43;97052.09;;;7.59;96.72
5062;BME280;2351;50.812;12.872;2024-03-23T01:17:14;97044.88;;;7.61;96.82
5062;BME280;2351;50.812;12.872;2024-03-23T01:19:45;97035.31;;;7.60;96.75
5062;BME280;2351;50.812;12.872;2024-03-23T01:22:16;97039.88;;;7.58;97.30
5062;BME280;2351;50.812;12.872;2024-03-23T01:24:49;97028.66;;;7.56;97.25
5062;BME280;2351;50.812;12.872;2024-03-23T01:27:20;97025.44;;;7.52;96.93
5062;BME280;2351;50.812;12.872;2024-03-23T01:29:52;97016.28;;;7.46;96.84
5062;BME280;2351;50.812;12.872;2024-03-23T01:32:22;97008.91;;;7.40;97.03
5062;BME280;2351;50.812;12.872;2024-03-23T01:34:54;97014.75;;;7.34;96.88
5062;BME280;2351;50.812;12.872;2024-03-23T01:37:25;97010.16;;;7.26;96.78
5062;BME280;2351;50.812;12.872;2024-03-23T01:39:58;96999.88;;;7.13;96.76
5062;BME280;2351;50.812;12.872;2024-03-23T01:42:28;97003.97;;;7.06;97.08
5062;BME280;2351;50.812;12.872;2024-03-23T01:45:00;97004.50;;;7.00;97.17
5062;BME280;2351;50.812;12.872;2024-03-23T01:47:31;97000.63;;;6.94;97.04
5062;BME280;2351;50.812;12.872;2024-03-23T01:50:05;96988.38;;;6.83;96.87
5062;BME280;2351;50.812;12.872;2024-03-23T01:52:36;96982.81;;;6.76;97.25
5062;BME280;2351;50.812;12.872;2024-03-23T01:55:09;96991.38;;;6.69;97.12
5062;BME280;2351;50.812;12.872;2024-03-23T01:57:40;96984.41;;;6.58;96.98
5062;BME280;2351;50.812;12.872;2024-03-23T02:00:12;96979.09;;;6.48;97.37
5062;BME280;2351;50.812;12.872;2024-03-23T02:02:44;96973.78;;;6.38;97.37
5062;BME280;2351;50.812;12.872;2024-03-23T02:05:16;96982.28;;;6.30;97.33
5062;BME280;2351;50.812;12.872;2024-03-23T02:07:47;96980.19;;;6.24;97.35
5062;BME280;2351;50.812;12.872;2024-03-23T02:10:20;96976.97;;;6.21;97.64
5062;BME280;2351;50.812;12.872;2024-03-23T02:12:51;96967.56;;;6.18;97.45
5062;BME280;2351;50.812;12.872;2024-03-23T02:15:23;96978.31;;;6.15;97.82
5062;BME280;2351;50.812;12.872;2024-03-23T02:17:53;96975.00;;;6.13;97.48
5062;BME280;2351;50.812;12.872;2024-03-23T02:20:25;96976.81;;;6.12;97.96
5062;BME280;2351;50.812;12.872;2024-03-23T02:22:57;96974.88;;;6.14;98.60
5062;BME280;2351;50.812;12.872;2024-03-23T02:25:29;96981.66;;;6.17;98.52
5062;BME280;2351;50.812;12.872;2024-03-23T02:28:00;96985.72;;;6.21;99.00
5062;BME280;2351;50.812;12.872;2024-03-23T02:30:31;96978.38;;;6.25;98.97
5062;BME280;2351;50.812;12.872;2024-03-23T02:33:02;96964.84;;;6.29;99.82
5062;BME280;2351;50.812;12.872;2024-03-23T02:35:34;96947.88;;;6.33;99.41
5062;BME280;2351;50.812;12.872;2024-03-23T02:38:06;96946.81;;;6.36;99.62
5062;BME280;2351;50.812;12.872;2024-03-23T02:40:38;96937.25;;;6.35;99.76
5062;BME280;2351;50.812;12.872;2024-03-23T02:43:09;96941.91;;;6.31;99.69
5062;BME280;2351;50.812;12.872;2024-03-23T02:45:40;96939.69;;;6.27;99.96
5062;BME280;2351;50.812;12.872;2024-03-23T02:48:11;96929.56;;;6.22;100.00
5062;BME280;2351;50.812;12.872;2024-03-23T02:50:43;96928.16;;;6.18;99.85
5062;BME280;2351;50.812;12.872;2024-03-23T02:53:15;96925.91;;;6.13;99.98
5062;BME280;2351;50.812;12.872;2024-03-23T02:55:46;96919.13;;;6.11;99.85
5062;BME280;2351;50.812;12.872;2024-03-23T02:58:17;96917.44;;;6.10;100.00
5062;BME280;2351;50.812;12.872;2024-03-23T03:00:49;96911.38;;;6.09;100.00
5062;BME280;2351;50.812;12.872;2024-03-23T03:03:19;96909.72;;;6.08;100.00
5062;BME280;2351;50.812;12.872;2024-03-23T03:05:55;96905.28;;;6.09;100.00
5062;BME280;2351;50.812;12.872;2024-03-23T03:08:27;96907.91;;;6.09;100.00
5062;BME280;2351;50.812;12.872;2024-03-23T03:10:58;96903.03;;;6.04;100.00
5062;BME280;2351;50.812;12.872;2024-03-23T03:13:30;96916.53;;;5.99;100.00
5062;BME280;2351;50.812;12.872;2024-03-23T03:16:01;96919.06;;;6.01;100.00
5062;BME280;2351;50.812;12.872;2024-03-23T03:18:32;96915.69;;;5.99;100.00
5062;BME280;2351;50.812;12.872;2024-03-23T03:21:03;96908.19;;;5.94;100.00
5062;BME280;2351;50.812;12.872;2024-03-23T03:23:37;96894.63;;;5.89;100.00
5062;BME280;2351;50.812;12.872;2024-03-23T03:26:08;96887.00;;;5.86;100.00
5062;BME280;2351;50.812;12.872;2024-03-23T03:28:40;96889.19;;;5.81;100.00
5062;BME280;2351;50.812;12.872;2024-03-23T03:31:10;96890.41;;;5.77;100.00
5062;BME280;2351;50.812;12.872;2024-03-23T03:33:42;96887.31;;;5.71;100.00
5062;BME280;2351;50.812;12.872;2024-03-23T03:36:13;96885.19;;;5.65;100.00
5062;BME280;2351;50.812;12.872;2024-03-23T03:38:46;96887.81;;;5.65;100.00
5062;BME280;2351;50.812;12.872;2024-03-23T03:41:18;96882.56;;;5.65;100.00
5062;BME280;2351;50.812;12.872;2024-03-23T03:43:49;96882.84;;;5.62;100.00
5062;BME280;2351;50.812;12.872;2024-03-23T03:46:20;96883.41;;;5.66;100.00
5062;BME280;2351;50.812;12.872;2024-03-23T03:48:52;96877.22;;;5.67;100.00
5062;BME280;2351;50.812;12.872;2024-03-23T03:51:23;96870.75;;;5.71;100.00
5062;BME280;2351;50.812;12.872;2024-03-23T03:53:56;96860.25;;;5.71;100.00
5062;BME280;2351;50.812;12.872;2024-03-23T03:56:26;96844.41;;;5.82;100.00
5062;BME280;2351;50.812;12.872;2024-03-23T03:58:58;96847.88;;;5.83;100.00
5062;BME280;2351;50.812;12.872;2024-03-23T04:01:29;96846.22;;;5.82;100.00
5062;BME280;2351;50.812;12.872;2024-03-23T04:04:01;96831.03;;;5.85;100.00
5062;BME280;2351;50.812;12.872;2024-03-23T04:06:31;96822.44;;;5.83;100.00
5062;BME280;2351;50.812;12.872;2024-03-23T04:09:05;96812.19;;;5.80;100.00
5062;BME280;2351;50.812;12.872;2024-03-23T04:11:36;96798.25;;;5.80;100.00
5062;BME280;2351;50.812;12.872;2024-03-23T04:14:08;96788.59;;;5.90;100.00
5062;BME280;2351;50.812;12.872;2024-03-23T04:16:39;96776.88;;;5.94;100.00
5062;BME280;2351;50.812;12.872;2024-03-23T04:19:10;96769.38;;;5.80;100.00
5062;BME280;2351;50.812;12.872;2024-03-23T04:21:41;96773.59;;;5.71;100.00
5062;BME280;2351;50.812;12.872;2024-03-23T04:24:14;96778.25;;;5.67;100.00
5062;BME280;2351;50.812;12.872;2024-03-23T04:26:45;96776.75;;;5.65;100.00
5062;BME280;2351;50.812;12.872;2024-03-23T04:29:17;96775.06;;;5.64;100.00
5062;BME280;2351;50.812;12.872;2024-03-23T04:31:48;96772.44;;;5.64;100.00
5062;BME280;2351;50.812;12.872;2024-03-23T04:34:19;96780.31;;;5.64;100.00
5062;BME280;2351;50.812;12.872;2024-03-23T04:36:50;96777.69;;;5.64;100.00
5062;BME280;2351;50.812;12.872;2024-03-23T04:39:24;96774.81;;;5.67;100.00
5062;BME280;2351;50.812;12.872;2024-03-23T04:41:55;96771.34;;;5.66;100.00
5062;BME280;2351;50.812;12.872;2024-03-23T04:44:27;96759.19;;;5.65;100.00
5062;BME280;2351;50.812;12.872;2024-03-23T04:47:00;96748.69;;;5.65;100.00
5062;BME280;2351;50.812;12.872;2024-03-23T04:49:32;96729.34;;;5.66;100.00
5062;BME280;2351;50.812;12.872;2024-03-23T04:52:04;96712.78;;;5.66;100.00
5062;BME280;2351;50.812;12.872;2024-03-23T04:54:37;96707.38;;;5.67;100.00
5062;BME280;2351;50.812;12.872;2024-03-23T04:57:10;96690.94;;;5.65;100.00
5062;BME280;2351;50.812;12.872;2024-03-23T04:59:42;96697.16;;;5.64;100.00
5062;BME280;2351;50.812;12.872;2024-03-23T05:02:13;96695.22;;;5.66;100.00
5062;BME280;2351;50.812;12.872;2024-03-23T05:04:45;96675.88;;;5.67;100.00
5062;BME280;2351;50.812;12.872;2024-03-23T05:07:16;96686.38;;;5.67;100.00
5062;BME280;2351;50.812;12.872;2024-03-23T05:09:49;96700.22;;;5.69;100.00
5062;BME280;2351;50.812;12.872;2024-03-23T05:12:19;96690.56;;;5.70;100.00
5062;BME280;2351;50.812;12.872;2024-03-23T05:14:51;96690.41;;;5.71;100.00
5062;BME280;2351;50.812;12.872;2024-03-23T05:17:23;96686.13;;;5.70;100.00
5062;BME280;2351;50.812;12.872;2024-03-23T05:19:55;96673.25;;;5.67;100.00
5062;BME280;2351;50.812;12.872;2024-03-23T05:22:25;96666.75;;;5.62;100.00
5062;BME280;2351;50.812;12.872;2024-03-23T05:24:59;96656.66;;;5.57;100.00
5062;BME280;2351;50.812;12.872;2024-03-23T05:27:31;96658.44;;;5.56;100.00
5062;BME280;2351;50.812;12.872;2024-03-23T05:30:03;96661.66;;;5.60;100.00
5062;BME280;2351;50.812;12.872;2024-03-23T05:32:34;96657.09;;;5.62;100.00
5062;BME280;2351;50.812;12.872;2024-03-23T05:35:06;96660.38;;;5.64;100.00
5062;BME280;2351;50.812;12.872;2024-03-23T05:37:37;96661.78;;;5.68;100.00
5062;BME280;2351;50.812;12.872;2024-03-23T05:40:11;96657.38;;;5.69;100.00
5062;BME280;2351;50.812;12.872;2024-03-23T05:42:45;96652.00;;;5.70;100.00
5062;BME280;2351;50.812;12.872;2024-03-23T05:45:17;96634.31;;;5.72;100.00
5062;BME280;2351;50.812;12.872;2024-03-23T05:47:49;96628.09;;;5.73;100.00
5062;BME280;2351;50.812;12.872;2024-03-23T05:50:21;96619.25;;;5.75;100.00
5062;BME280;2351;50.812;12.872;2024-03-23T05:52:52;96628.66;;;5.77;100.00
5062;BME280;2351;50.812;12.872;2024-03-23T05:55:25;96625.91;;;5.79;100.00
5062;BME280;2351;50.812;12.872;2024-03-23T05:57:55;96632.81;;;5.80;100.00
5062;BME280;2351;50.812;12.872;2024-03-23T06:00:27;96623.13;;;5.80;100.00
5062;BME280;2351;50.812;12.872;2024-03-23T06:02:58;96611.56;;;5.83;100.00
5062;BME280;2351;50.812;12.872;2024-03-23T06:05:29;96595.22;;;5.79;100.00
5062;BME280;2351;50.812;12.872;2024-03-23T06:08:00;96601.16;;;5.81;100.00
5062;BME280;2351;50.812;12.872;2024-03-23T06:10:33;96609.88;;;5.82;100.00
5062;BME280;2351;50.812;12.872;2024-03-23T06:13:04;96600.47;;;5.79;100.00
5062;BME280;2351;50.812;12.872;2024-03-23T06:15:36;96590.13;;;5.78;100.00
5062;BME280;2351;50.812;12.872;2024-03-23T06:18:08;96584.03;;;5.77;100.00
5062;BME280;2351;50.812;12.872;2024-03-23T06:20:39;96567.31;;;5.78;100.00
5062;BME280;2351;50.812;12.872;2024-03-23T06:23:10;96575.19;;;5.78;100.00
5062;BME280;2351;50.812;12.872;2024-03-23T06:25:44;96578.66;;;5.79;100.00
5062;BME280;2351;50.812;12.872;2024-03-23T06:28:15;96571.47;;;5.81;100.00
5062;BME280;2351;50.812;12.872;2024-03-23T06:30:46;96568.44;;;5.85;100.00
5062;BME280;2351;50.812;12.872;2024-03-23T06:33:17;96576.03;;;5.88;100.00
5062;BME280;2351;50.812;12.872;2024-03-23T06:35:50;96540.66;;;5.93;100.00
5062;BME280;2351;50.812;12.872;2024-03-23T06:38:21;96530.00;;;5.94;100.00
5062;BME280;2351;50.812;12.872;2024-03-23T06:40:54;96534.84;;;5.99;100.00
5062;BME280;2351;50.812;12.872;2024-03-23T06:43:25;96521.47;;;6.02;100.00
5062;BME280;2351;50.812;12.872;2024-03-23T06:45:57;96527.94;;;6.08;100.00
5062;BME280;2351;50.812;12.872;2024-03-23T06:48:27;96517.88;;;6.13;100.00
5062;BME280;2351;50.812;12.872;2024-03-23T06:50:59;96515.66;;;6.18;100.00
5062;BME280;2351;50.812;12.872;2024-03-23T06:53:30;96509.28;;;6.21;100.00
5062;BME280;2351;50.812;12.872;2024-03-23T06:56:03;96512.88;;;6.20;100.00
5062;BME280;2351;50.812;12.872;2024-03-23T06:58:34;96511.22;;;6.18;100.00
5062;BME280;2351;50.812;12.872;2024-03-23T07:01:06;96500.72;;;6.18;100.00
5062;BME280;2351;50.812;12.872;2024-03-23T07:03:37;96495.19;;;6.22;100.00
5062;BME280;2351;50.812;12.872;2024-03-23T07:06:09;96489.38;;;6.28;100.00
5062;BME280;2351;50.812;12.872;2024-03-23T07:08:40;96492.41;;;6.33;100.00
5062;BME280;2351;50.812;12.872;2024-03-23T07:11:18;96489.34;;;6.38;100.00
5062;BME280;2351;50.812;12.872;2024-03-23T07:13:50;96474.97;;;6.42;100.00
5062;BME280;2351;50.812;12.872;2024-03-23T07:16:22;96462.22;;;6.47;100.00
5062;BME280;2351;50.812;12.872;2024-03-23T07:18:53;96456.38;;;6.53;100.00
5062;BME280;2351;50.812;12.872;2024-03-23T07:21:25;96448.09;;;6.58;100.00
5062;BME280;2351;50.812;12.872;2024-03-23T07:23:56;96442.78;;;6.68;100.00
5062;BME280;2351;50.812;12.872;2024-03-23T07:26:29;96441.63;;;6.80;100.00
5062;BME280;2351;50.812;12.872;2024-03-23T07:29:00;96446.03;;;6.89;100.00
5062;BME280;2351;50.812;12.872;2024-03-23T07:31:32;96435.91;;;6.95;100.00
5062;BME280;2351;50.812;12.872;2024-03-23T07:34:03;96431.84;;;7.00;100.00
5062;BME280;2351;50.812;12.872;2024-03-23T07:36:34;96425.97;;;7.06;100.00
5062;BME280;2351;50.812;12.872;2024-03-23T07:39:05;96420.28;;;7.11;100.00
5062;BME280;2351;50.812;12.872;2024-03-23T07:41:39;96423.69;;;7.21;100.00
5062;BME280;2351;50.812;12.872;2024-03-23T07:44:10;96429.44;;;7.35;100.00
5062;BME280;2351;50.812;12.872;2024-03-23T07:46:42;96434.47;;;7.46;100.00
5062;BME280;2351;50.812;12.872;2024-03-23T07:49:12;96435.34;;;7.55;100.00
5062;BME280;2351;50.812;12.872;2024-03-23T07:51:44;96420.47;;;7.64;100.00
5062;BME280;2351;50.812;12.872;2024-03-23T07:54:15;96418.00;;;7.80;100.00
5062;BME280;2351;50.812;12.872;2024-03-23T07:56:48;96406.97;;;8.03;100.00
5062;BME280;2351;50.812;12.872;2024-03-23T07:59:19;96398.22;;;8.29;100.00
5062;BME280;2351;50.812;12.872;2024-03-23T08:01:50;96393.84;;;8.64;100.00
5062;BME280;2351;50.812;12.872;2024-03-23T08:04:21;96379.31;;;9.11;100.00
5062;BME280;2351;50.812;12.872;2024-03-23T08:06:53;96381.19;;;9.44;100.00
5062;BME280;2351;50.812;12.872;2024-03-23T08:09:24;96396.72;;;9.55;100.00
5062;BME280;2351;50.812;12.872;2024-03-23T08:11:57;96393.56;;;9.52;100.00
5062;BME280;2351;50.812;12.872;2024-03-23T08:14:28;96400.34;;;9.46;100.00
5062;BME280;2351;50.812;12.872;2024-03-23T08:16:59;96402.66;;;9.49;100.00
5062;BME280;2351;50.812;12.872;2024-03-23T08:19:30;96394.91;;;9.47;100.00
5062;BME280;2351;50.812;12.872;2024-03-23T08:22:02;96402.16;;;9.45;100.00
5062;BME280;2351;50.812;12.872;2024-03-23T08:24:34;96404.13;;;9.52;100.00
5062;BME280;2351;50.812;12.872;2024-03-23T08:27:07;96403.84;;;9.63;100.00
5062;BME280;2351;50.812;12.872;2024-03-23T08:29:38;96404.31;;;9.67;100.00
5062;BME280;2351;50.812;12.872;2024-03-23T08:32:09;96398.88;;;9.60;100.00
5062;BME280;2351;50.812;12.872;2024-03-23T08:34:40;96407.63;;;9.52;100.00
5062;BME280;2351;50.812;12.872;2024-03-23T08:37:12;96408.94;;;9.56;100.00
5062;BME280;2351;50.812;12.872;2024-03-23T08:39:43;96408.63;;;9.59;100.00
5062;BME280;2351;50.812;12.872;2024-03-23T08:42:16;96409.94;;;9.55;100.00
5062;BME280;2351;50.812;12.872;2024-03-23T08:44:47;96402.81;;;9.56;100.00
5062;BME280;2351;50.812;12.872;2024-03-23T08:47:19;96395.72;;;9.64;100.00
5062;BME280;2351;50.812;12.872;2024-03-23T08:49:50;96408.78;;;9.66;100.00
5062;BME280;2351;50.812;12.872;2024-03-23T08:52:22;96406.28;;;9.64;100.00
5062;BME280;2351;50.812;12.872;2024-03-23T08:54:53;96411.91;;;9.61;100.00
5062;BME280;2351;50.812;12.872;2024-03-23T08:57:27;96439.47;;;9.59;100.00
5062;BME280;2351;50.812;12.872;2024-03-23T08:59:58;96475.50;;;9.17;100.00
5062;BME280;2351;50.812;12.872;2024-03-23T09:02:30;96487.63;;;8.67;100.00
5062;BME280;2351;50.812;12.872;2024-03-23T09:05:00;96512.19;;;7.87;100.00
5062;BME280;2351;50.812;12.872;2024-03-23T09:07:34;96544.38;;;7.06;100.00
5062;BME280;2351;50.812;12.872;2024-03-23T09:10:06;96573.69;;;6.54;100.00
5062;BME280;2351;50.812;12.872;2024-03-23T09:12:40;96599.78;;;5.77;100.00
5062;BME280;2351;50.812;12.872;2024-03-23T09:15:10;96638.88;;;5.08;100.00
5062;BME280;2351;50.812;12.872;2024-03-23T09:17:42;96652.41;;;4.61;100.00
5062;BME280;2351;50.812;12.872;2024-03-23T09:20:13;96667.34;;;4.38;100.00
5062;BME280;2351;50.812;12.872;2024-03-23T09:22:45;96669.31;;;4.25;100.00
5062;BME280;2351;50.812;12.872;2024-03-23T09:25:15;96672.72;;;4.04;100.00
5062;BME280;2351;50.812;12.872;2024-03-23T09:27:49;96693.19;;;3.87;100.00
5062;BME280;2351;50.812;12.872;2024-03-23T09:30:20;96703.91;;;3.50;100.00
5062;BME280;2351;50.812;12.872;2024-03-23T09:32:52;96717.69;;;3.29;100.00
5062;BME280;2351;50.812;12.872;2024-03-23T09:35:22;96739.47;;;3.30;100.00
5062;BME280;2351;50.812;12.872;2024-03-23T09:37:54;96759.75;;;3.26;100.00
5062;BME280;2351;50.812;12.872;2024-03-23T09:40:27;96768.84;;;3.09;100.00
5062;BME280;2351;50.812;12.872;2024-03-23T09:42:59;96777.97;;;2.92;100.00
5062;BME280;2351;50.812;12.872;2024-03-23T09:45:34;96776.75;;;2.85;100.00
5062;BME280;2351;50.812;12.872;2024-03-23T09:48:08;96782.91;;;2.84;100.00
5062;BME280;2351;50.812;12.872;2024-03-23T09:50:41;96802.28;;;2.81;100.00
5062;BME280;2351;50.812;12.872;2024-03-23T09:53:13;96825.50;;;2.73;100.00
5062;BME280;2351;50.812;12.872;2024-03-23T09:55:45;96838.69;;;2.71;100.00
5062;BME280;2351;50.812;12.872;2024-03-23T09:58:18;96847.56;;;2.69;100.00
5062;BME280;2351;50.812;12.872;2024-03-23T10:00:49;96862.44;;;2.68;100.00
5062;BME280;2351;50.812;12.872;2024-03-23T10:03:20;96882.19;;;2.73;100.00
5062;BME280;2351;50.812;12.872;2024-03-23T10:06:00;96894.69;;;2.80;100.00
5062;BME280;2351;50.812;12.872;2024-03-23T10:08:31;96902.09;;;2.86;100.00
5062;BME280;2351;50.812;12.872;2024-03-23T10:11:12;96892.41;;;2.76;100.00
5062;BME280;2351;50.812;12.872;2024-03-23T10:13:45;96907.03;;;2.78;100.00
5062;BME280;2351;50.812;12.872;2024-03-23T10:16:21;96923.03;;;2.74;100.00
5062;BME280;2351;50.812;12.872;2024-03-23T10:18:53;96927.72;;;2.81;100.00
5062;BME280;2351;50.812;12.872;2024-03-23T10:21:24;96937.25;;;2.82;100.00
5062;BME280;2351;50.812;12.872;2024-03-23T10:23:55;96951.13;;;2.83;100.00
5062;BME280;2351;50.812;12.872;2024-03-23T10:26:27;96952.16;;;2.93;100.00
5062;BME280;2351;50.812;12.872;2024-03-23T10:29:00;96958.94;;;2.96;100.00
5062;BME280;2351;50.812;12.872;2024-03-23T10:31:32;96963.34;;;2.95;100.00
5062;BME280;2351;50.812;12.872;2024-03-23T10:34:03;96970.84;;;3.00;100.00
5062;BME280;2351;50.812;12.872;2024-03-23T10:36:38;96981.88;;;2.92;100.00
5062;BME280;2351;50.812;12.872;2024-03-23T10:39:12;96985.06;;;3.09;100.00
5062;BME280;2351;50.812;12.872;2024-03-23T10:41:49;96988.06;;;3.15;100.00
5062;BME280;2351;50.812;12.872;2024-03-23T10:44:22;96982.38;;;2.97;100.00
5062;BME280;2351;50.812;12.872;2024-03-23T10:46:57;96995.44;;;2.97;100.00
5062;BME280;2351;50.812;12.872;2024-03-23T10:49:32;96987.91;;;2.93;100.00
5062;BME280;2351;50.812;12.872;2024-03-23T10:52:05;96994.72;;;2.95;100.00
5062;BME280;2351;50.812;12.872;2024-03-23T10:54:36;96988.75;;;2.93;100.00
5062;BME280;2351;50.812;12.872;2024-03-23T10:57:12;96993.31;;;3.03;100.00
5062;BME280;2351;50.812;12.872;2024-03-23T10:59:46;97011.06;;;3.10;100.00
5062;BME280;2351;50.812;12.872;2024-03-23T11:02:19;97018.69;;;3.26;100.00
5062;BME280;2351;50.812;12.872;2024-03-23T11:04:50;97015.22;;;3.39;100.00
5062;BME280;2351;50.812;12.872;2024-03-23T11:07:29;97011.22;;;3.33;100.00
5062;BME280;2351;50.812;12.872;2024-03-23T11:10:00;97007.16;;;3.42;100.00
5062;BME280;2351;50.812;12.872;2024-03-23T11:12:33;97015.47;;;3.47;100.00
5062;BME280;2351;50.812;12.872;2024-03-23T11:15:11;97010.53;;;3.55;100.00
5062;BME280;2351;50.812;12.872;2024-03-23T11:18:02;97009.03;;;3.64;100.00
5062;BME280;2351;50.812;12.872;2024-03-23T11:20:33;97010.97;;;3.49;100.00
5062;BME280;2351;50.812;12.872;2024-03-23T11:23:05;97024.50;;;3.67;100.00
5062;BME280;2351;50.812;12.872;2024-03-23T11:25:36;97020.38;;;3.76;100.00
5062;BME280;2351;50.812;12.872;2024-03-23T11:28:11;97021.72;;;3.82;100.00
5062;BME280;2351;50.812;12.872;2024-03-23T11:30:44;97036.09;;;3.76;100.00
5062;BME280;2351;50.812;12.872;2024-03-23T11:33:15;97031.84;;;3.86;100.00
5062;BME280;2351;50.812;12.872;2024-03-23T11:35:46;97030.88;;;3.87;100.00
5062;BME280;2351;50.812;12.872;2024-03-23T11:38:18;97031.00;;;3.86;100.00
5062;BME280;2351;50.812;12.872;2024-03-23T11:40:49;97027.38;;;4.00;100.00
5062;BME280;2351;50.812;12.872;2024-03-23T11:43:21;97023.91;;;3.99;100.00
5062;BME280;2351;50.812;12.872;2024-03-23T11:45:54;97020.66;;;3.84;100.00
5062;BME280;2351;50.812;12.872;2024-03-23T11:48:26;97012.66;;;3.74;100.00
5062;BME280;2351;50.812;12.872;2024-03-23T11:50:57;97019.16;;;3.69;100.00
5062;BME280;2351;50.812;12.872;2024-03-23T11:53:29;97021.09;;;3.78;100.00
5062;BME280;2351;50.812;12.872;2024-03-23T11:56:00;97018.38;;;3.80;100.00
5062;BME280;2351;50.812;12.872;2024-03-23T11:58:34;97014.22;;;3.88;100.00
5062;BME280;2351;50.812;12.872;2024-03-23T12:01:10;97023.75;;;3.89;100.00
5062;BME280;2351;50.812;12.872;2024-03-23T12:03:44;97031.22;;;4.07;100.00
5062;BME280;2351;50.812;12.872;2024-03-23T12:06:19;97037.16;;;4.09;100.00
5062;BME280;2351;50.812;12.872;2024-03-23T12:08:51;97028.84;;;4.15;100.00
5062;BME280;2351;50.812;12.872;2024-03-23T12:11:23;97033.16;;;4.16;100.00
5062;BME280;2351;50.812;12.872;2024-03-23T12:13:59;97037.66;;;4.14;100.00
5062;BME280;2351;50.812;12.872;2024-03-23T12:16:31;97044.03;;;3.99;100.00
5062;BME280;2351;50.812;12.872;2024-03-23T12:19:05;97051.44;;;3.81;100.00
5062;BME280;2351;50.812;12.872;2024-03-23T12:21:37;97046.84;;;3.84;100.00
5062;BME280;2351;50.812;12.872;2024-03-23T12:24:09;97054.03;;;3.69;100.00
5062;BME280;2351;50.812;12.872;2024-03-23T12:26:40;97057.59;;;3.68;100.00
5062;BME280;2351;50.812;12.872;2024-03-23T12:29:12;97056.53;;;3.71;100.00
5062;BME280;2351;50.812;12.872;2024-03-23T12:31:44;97056.75;;;3.68;100.00
5062;BME280;2351;50.812;12.872;2024-03-23T12:34:16;97059.13;;;3.71;100.00
5062;BME280;2351;50.812;12.872;2024-03-23T12:36:46;97063.78;;;3.67;100.00
5062;BME280;2351;50.812;12.872;2024-03-23T12:39:18;97071.06;;;3.75;100.00
5062;BME280;2351;50.812;12.872;2024-03-23T12:41:49;97071.63;;;3.67;100.00
5062;BME280;2351;50.812;12.872;2024-03-23T12:44:22;97075.56;;;3.73;100.00
5062;BME280;2351;50.812;12.872;2024-03-23T12:46:55;97065.16;;;3.60;100.00
5062;BME280;2351;50.812;12.872;2024-03-23T12:49:26;97073.38;;;3.67;100.00
5062;BME280;2351;50.812;12.872;2024-03-23T12:51:57;97077.19;;;3.87;100.00
5062;BME280;2351;50.812;12.872;2024-03-23T12:54:30;97057.63;;;4.04;100.00
5062;BME280;2351;50.812;12.872;2024-03-23T12:57:02;97054.16;;;4.28;100.00
5062;BME280;2351;50.812;12.872;2024-03-23T12:59:33;97056.59;;;4.65;100.00
5062;BME280;2351;50.812;12.872;2024-03-23T13:02:07;97030.28;;;5.12;100.00
5062;BME280;2351;50.812;12.872;2024-03-23T13:04:40;97026.56;;;5.26;100.00
5062;BME280;2351;50.812;12.872;2024-03-23T13:07:10;97017.97;;;5.35;100.00
5062;BME280;2351;50.812;12.872;2024-03-23T13:09:43;97017.50;;;5.19;100.00
5062;BME280;2351;50.812;12.872;2024-03-23T13:12:14;97023.59;;;5.19;100.00
5062;BME280;2351;50.812;12.872;2024-03-23T13:14:45;97024.06;;;5.36;100.00
5062;BME280;2351;50.812;12.872;2024-03-23T13:17:19;97022.75;;;5.30;100.00
5062;BME280;2351;50.812;12.872;2024-03-23T13:19:49;97032.16;;;5.44;100.00
5062;BME280;2351;50.812;12.872;2024-03-23T13:22:21;97041.03;;;5.64;100.00
5062;BME280;2351;50.812;12.872;2024-03-23T13:24:52;97027.09;;;5.64;100.00
5062;BME280;2351;50.812;12.872;2024-03-23T13:27:23;97028.88;;;5.63;100.00
5062;BME280;2351;50.812;12.872;2024-03-23T13:29:54;97025.56;;;5.94;100.00
5062;BME280;2351;50.812;12.872;2024-03-23T13:32:27;97016.28;;;5.90;100.00
5062;BME280;2351;50.812;12.872;2024-03-23T13:34:59;97018.28;;;5.97;100.00
5062;BME280;2351;50.812;12.872;2024-03-23T13:37:30;97018.88;;;6.01;100.00
5062;BME280;2351;50.812;12.872;2024-03-23T13:40:01;97012.22;;;6.18;100.00
5062;BME280;2351;50.812;12.872;2024-03-23T13:42:33;97005.31;;;6.38;100.00
5062;BME280;2351;50.812;12.872;2024-03-23T13:45:04;96990.53;;;6.68;100.00
5062;BME280;2351;50.812;12.872;2024-03-23T13:47:37;96983.72;;;6.97;100.00
5062;BME280;2351;50.812;12.872;2024-03-23T13:50:08;96983.13;;;7.24;100.00
5062;BME280;2351;50.812;12.872;2024-03-23T13:52:40;96984.44;;;7.59;100.00
5062;BME280;2351;50.812;12.872;2024-03-23T13:55:11;96974.19;;;7.76;100.00
5062;BME280;2351;50.812;12.872;2024-03-23T13:57:45;96974.88;;;7.97;100.00
5062;BME280;2351;50.812;12.872;2024-03-23T14:00:16;96960.59;;;8.00;98.36
5062;BME280;2351;50.812;12.872;2024-03-23T14:02:50;96952.00;;;7.78;96.62
5062;BME280;2351;50.812;12.872;2024-03-23T14:05:21;96956.72;;;8.04;97.30
5062;BME280;2351;50.812;12.872;2024-03-23T14:07:52;96953.09;;;8.15;88.13
5062;BME280;2351;50.812;12.872;2024-03-23T14:10:23;96960.31;;;8.03;83.39
5062;BME280;2351;50.812;12.872;2024-03-23T14:12:55;96967.50;;;8.21;87.08
5062;BME280;2351;50.812;12.872;2024-03-23T14:15:26;96972.19;;;8.47;87.30
5062;BME280;2351;50.812;12.872;2024-03-23T14:17:59;96961.50;;;8.38;78.18
5062;BME280;2351;50.812;12.872;2024-03-23T14:20:30;96958.75;;;8.20;77.17
5062;BME280;2351;50.812;12.872;2024-03-23T14:23:01;96966.94;;;8.07;78.76
5062;BME280;2351;50.812;12.872;2024-03-23T14:25:32;96973.06;;;8.08;78.54
5062;BME280;2351;50.812;12.872;2024-03-23T14:28:04;96975.56;;;7.70;76.73
5062;BME280;2351;50.812;12.872;2024-03-23T14:30:35;96973.09;;;7.78;78.38